ADR8182 LJLJ-LYTV
Flight info
| Callsign | ADR8182 |
|---|---|
| Flight time | 0h 53m |
| Altitude | 37000 |
| Route | LUPIX DCT NEMEK DCT RASTU DCT GEBNI DCT BIGLO |
| Aircraft | A320/M-SDE3FGHIRWY/LB1 |
Departure
| Time | 2026-04-26 09:05 |
|---|---|
| Airport | Ljubljana Jože Pučnik Airport (LJLJ) |
Arrival
| Time | 2026-04-26 09:58 |
|---|---|
| Airport | Tivat Airport (LYTV) |
| Time | Latitude | Longitude | Altitude | Speed | Heading |
|---|---|---|---|---|---|
| 2026-04-26 07:26 | 46.22956 | 14.45561 | 1231 ft | 0 kts | 36° |
| 2026-04-26 08:53 | 46.22942 | 14.45547 | 1267 ft | 3 kts | 31° |
| 2026-04-26 08:54 | 46.22924 | 14.45534 | 1264 ft | 3 kts | 18° |
| 2026-04-26 08:54 | 46.22906 | 14.45528 | 1267 ft | 3 kts | 353° |
| 2026-04-26 08:54 | 46.22889 | 14.45536 | 1261 ft | 3 kts | 308° |
| 2026-04-26 08:54 | 46.22888 | 14.45538 | 1261 ft | 0 kts | 306° |
| 2026-04-26 08:58 | 46.22892 | 14.45530 | 1263 ft | 2 kts | 306° |
| 2026-04-26 08:58 | 46.22902 | 14.45510 | 1262 ft | 3 kts | 306° |
| 2026-04-26 08:58 | 46.22915 | 14.45485 | 1258 ft | 1 kts | 306° |
| 2026-04-26 08:58 | 46.22924 | 14.45466 | 1263 ft | 3 kts | 306° |
| 2026-04-26 08:59 | 46.22939 | 14.45435 | 1264 ft | 5 kts | 298° |
| 2026-04-26 08:59 | 46.22924 | 14.45400 | 1260 ft | 5 kts | 217° |
| 2026-04-26 08:59 | 46.22892 | 14.45366 | 1262 ft | 6 kts | 216° |
| 2026-04-26 08:59 | 46.22853 | 14.45324 | 1259 ft | 7 kts | 217° |
| 2026-04-26 09:00 | 46.22858 | 14.45267 | 1260 ft | 6 kts | 296° |
| 2026-04-26 09:00 | 46.22884 | 14.45216 | 1261 ft | 6 kts | 307° |
| 2026-04-26 09:00 | 46.22911 | 14.45163 | 1266 ft | 7 kts | 306° |
| 2026-04-26 09:00 | 46.22939 | 14.45107 | 1267 ft | 7 kts | 306° |
| 2026-04-26 09:01 | 46.22968 | 14.45052 | 1264 ft | 7 kts | 306° |
| 2026-04-26 09:01 | 46.23003 | 14.44983 | 1265 ft | 9 kts | 306° |
| 2026-04-26 09:01 | 46.23040 | 14.44908 | 1270 ft | 9 kts | 306° |
| 2026-04-26 09:01 | 46.23079 | 14.44834 | 1273 ft | 9 kts | 307° |
| 2026-04-26 09:02 | 46.23115 | 14.44762 | 1270 ft | 9 kts | 307° |
| 2026-04-26 09:02 | 46.23152 | 14.44692 | 1272 ft | 9 kts | 307° |
| 2026-04-26 09:02 | 46.23186 | 14.44625 | 1273 ft | 8 kts | 306° |
| 2026-04-26 09:02 | 46.23220 | 14.44559 | 1275 ft | 8 kts | 307° |
| 2026-04-26 09:03 | 46.23274 | 14.44454 | 1277 ft | 17 kts | 307° |
| 2026-04-26 09:03 | 46.23343 | 14.44319 | 1280 ft | 17 kts | 307° |
| 2026-04-26 09:03 | 46.23401 | 14.44190 | 1283 ft | 11 kts | 286° |
| 2026-04-26 09:03 | 46.23360 | 14.44095 | 1283 ft | 13 kts | 204° |
| 2026-04-26 09:04 | 46.23265 | 14.44092 | 1282 ft | 15 kts | 160° |
| 2026-04-26 09:04 | 46.23171 | 14.44194 | 1279 ft | 19 kts | 132° |
| 2026-04-26 09:04 | 46.23063 | 14.44406 | 1275 ft | 44 kts | 126° |
| 2026-04-26 09:04 | 46.22740 | 14.45033 | 1265 ft | 108 kts | 126° |
| 2026-04-26 09:05 | 46.22193 | 14.46102 | 1248 ft | 155 kts | 127° |
| 2026-04-26 09:05 | 46.21496 | 14.47435 | 1621 ft | 167 kts | 127° |
| 2026-04-26 09:05 | 46.20807 | 14.48762 | 2328 ft | 165 kts | 126° |
| 2026-04-26 09:05 | 46.20127 | 14.50083 | 2984 ft | 163 kts | 127° |
| 2026-04-26 09:06 | 46.19455 | 14.51391 | 3563 ft | 162 kts | 127° |
| 2026-04-26 09:06 | 46.18786 | 14.52694 | 4247 ft | 162 kts | 126° |
| 2026-04-26 09:06 | 46.18106 | 14.54024 | 4751 ft | 171 kts | 125° |
| 2026-04-26 09:06 | 46.17355 | 14.55496 | 4977 ft | 193 kts | 125° |
| 2026-04-26 09:07 | 46.16508 | 14.57154 | 5192 ft | 218 kts | 124° |
| 2026-04-26 09:07 | 46.15557 | 14.59014 | 5537 ft | 243 kts | 125° |
| 2026-04-26 09:07 | 46.14506 | 14.61063 | 5933 ft | 266 kts | 125° |
| 2026-04-26 09:07 | 46.13375 | 14.63264 | 6610 ft | 278 kts | 125° |
| 2026-04-26 09:08 | 46.12207 | 14.65528 | 7366 ft | 284 kts | 125° |
| 2026-04-26 09:08 | 46.11022 | 14.67825 | 8199 ft | 288 kts | 126° |
| 2026-04-26 09:08 | 46.09818 | 14.70161 | 9031 ft | 292 kts | 126° |
| 2026-04-26 09:08 | 46.08600 | 14.72521 | 9844 ft | 296 kts | 127° |
| 2026-04-26 09:09 | 46.07335 | 14.74916 | 10434 ft | 309 kts | 130° |
| 2026-04-26 09:09 | 46.05760 | 14.77162 | 10664 ft | 331 kts | 141° |
| 2026-04-26 09:09 | 46.03870 | 14.79239 | 10945 ft | 349 kts | 143° |
| 2026-04-26 09:09 | 46.01907 | 14.81378 | 11540 ft | 357 kts | 143° |
| 2026-04-26 09:10 | 45.99916 | 14.83558 | 12131 ft | 364 kts | 143° |
| 2026-04-26 09:10 | 45.97896 | 14.85781 | 12827 ft | 367 kts | 143° |
| 2026-04-26 09:10 | 45.95881 | 14.88001 | 13463 ft | 372 kts | 142° |
| 2026-04-26 09:10 | 45.93820 | 14.90268 | 14086 ft | 376 kts | 142° |
| 2026-04-26 09:11 | 45.91726 | 14.92566 | 14684 ft | 380 kts | 142° |
| 2026-04-26 09:11 | 45.89619 | 14.94873 | 15278 ft | 383 kts | 142° |
| 2026-04-26 09:11 | 45.87486 | 14.97204 | 15853 ft | 387 kts | 142° |
| 2026-04-26 09:11 | 45.85335 | 14.99552 | 16437 ft | 389 kts | 142° |
| 2026-04-26 09:12 | 45.83177 | 15.01906 | 17025 ft | 392 kts | 142° |
| 2026-04-26 09:12 | 45.80996 | 15.04285 | 17618 ft | 395 kts | 141° |
| 2026-04-26 09:12 | 45.78797 | 15.06686 | 18188 ft | 398 kts | 141° |
| 2026-04-26 09:12 | 45.76591 | 15.09091 | 18734 ft | 401 kts | 141° |
| 2026-04-26 09:13 | 45.74359 | 15.11518 | 19264 ft | 404 kts | 141° |
| 2026-04-26 09:13 | 45.72118 | 15.13948 | 19795 ft | 406 kts | 141° |
| 2026-04-26 09:13 | 45.69854 | 15.16402 | 20327 ft | 409 kts | 141° |
| 2026-04-26 09:13 | 45.67576 | 15.18872 | 20829 ft | 412 kts | 141° |
| 2026-04-26 09:14 | 45.65292 | 15.21347 | 21323 ft | 414 kts | 141° |
| 2026-04-26 09:14 | 45.62984 | 15.23841 | 21803 ft | 417 kts | 141° |
| 2026-04-26 09:14 | 45.60663 | 15.26349 | 22252 ft | 419 kts | 141° |
| 2026-04-26 09:14 | 45.58328 | 15.28854 | 22752 ft | 422 kts | 143° |
| 2026-04-26 09:15 | 45.55792 | 15.31013 | 23201 ft | 426 kts | 152° |
| 2026-04-26 09:15 | 45.53133 | 15.32895 | 23647 ft | 429 kts | 152° |
| 2026-04-26 09:15 | 45.50450 | 15.34792 | 24058 ft | 431 kts | 152° |
| 2026-04-26 09:15 | 45.47752 | 15.36698 | 24450 ft | 433 kts | 152° |
| 2026-04-26 09:16 | 45.45049 | 15.38607 | 24839 ft | 436 kts | 153° |
| 2026-04-26 09:16 | 45.42324 | 15.40534 | 25207 ft | 438 kts | 153° |
| 2026-04-26 09:16 | 45.39596 | 15.42470 | 25585 ft | 440 kts | 153° |
| 2026-04-26 09:16 | 45.36846 | 15.44425 | 25946 ft | 442 kts | 153° |
| 2026-04-26 09:17 | 45.34081 | 15.46387 | 26301 ft | 445 kts | 153° |
| 2026-04-26 09:17 | 45.32244 | 15.47688 | 26542 ft | 446 kts | 153° |
| 2026-04-26 09:17 | 45.28513 | 15.50324 | 27006 ft | 450 kts | 153° |
| 2026-04-26 09:17 | 45.25708 | 15.52302 | 27358 ft | 452 kts | 153° |
| 2026-04-26 09:18 | 45.22878 | 15.54295 | 27724 ft | 455 kts | 153° |
| 2026-04-26 09:18 | 45.20034 | 15.56297 | 28094 ft | 457 kts | 153° |
| 2026-04-26 09:18 | 45.17212 | 15.58279 | 28453 ft | 459 kts | 154° |
| 2026-04-26 09:18 | 45.14308 | 15.60311 | 28797 ft | 461 kts | 154° |
| 2026-04-26 09:19 | 45.11456 | 15.62301 | 29142 ft | 464 kts | 154° |
| 2026-04-26 09:19 | 45.08525 | 15.64349 | 29520 ft | 465 kts | 154° |
| 2026-04-26 09:19 | 45.05664 | 15.66350 | 30003 ft | 464 kts | 154° |
| 2026-04-26 09:19 | 45.02769 | 15.68374 | 30445 ft | 463 kts | 154° |
| 2026-04-26 09:20 | 44.99888 | 15.70384 | 30847 ft | 462 kts | 154° |
| 2026-04-26 09:20 | 44.97002 | 15.72393 | 31271 ft | 462 kts | 154° |
| 2026-04-26 09:20 | 44.94192 | 15.74591 | 31674 ft | 461 kts | 147° |
| 2026-04-26 09:20 | 44.91638 | 15.77311 | 32068 ft | 461 kts | 140° |
| 2026-04-26 09:21 | 44.89171 | 15.80208 | 32482 ft | 461 kts | 140° |
| 2026-04-26 09:21 | 44.86712 | 15.83091 | 32882 ft | 461 kts | 140° |
| 2026-04-26 09:21 | 44.84243 | 15.85982 | 33235 ft | 462 kts | 141° |
| 2026-04-26 09:21 | 44.81766 | 15.88878 | 33584 ft | 463 kts | 141° |
| 2026-04-26 09:22 | 44.79287 | 15.91763 | 33953 ft | 463 kts | 141° |
| 2026-04-26 09:22 | 44.76798 | 15.94646 | 34368 ft | 462 kts | 141° |
| 2026-04-26 09:22 | 44.74316 | 15.97511 | 34764 ft | 460 kts | 141° |
| 2026-04-26 09:22 | 44.71850 | 16.00361 | 35098 ft | 460 kts | 141° |
| 2026-04-26 09:23 | 44.69378 | 16.03224 | 35427 ft | 459 kts | 141° |
| 2026-04-26 09:23 | 44.66923 | 16.06064 | 35799 ft | 457 kts | 141° |
| 2026-04-26 09:23 | 44.64464 | 16.08902 | 36153 ft | 457 kts | 141° |
| 2026-04-26 09:23 | 44.62009 | 16.11734 | 36475 ft | 456 kts | 141° |
| 2026-04-26 09:24 | 44.59567 | 16.14551 | 36789 ft | 455 kts | 141° |
| 2026-04-26 09:24 | 44.57118 | 16.17372 | 37057 ft | 455 kts | 141° |
| 2026-04-26 09:24 | 44.54668 | 16.20190 | 37125 ft | 459 kts | 141° |
| 2026-04-26 09:25 | 44.49697 | 16.25894 | 37117 ft | 463 kts | 141° |
| 2026-04-26 09:25 | 44.45562 | 16.30634 | 37120 ft | 463 kts | 141° |
| 2026-04-26 09:26 | 44.40569 | 16.36345 | 37118 ft | 463 kts | 141° |
| 2026-04-26 09:26 | 44.35582 | 16.42038 | 37114 ft | 463 kts | 141° |
| 2026-04-26 09:27 | 44.30591 | 16.47719 | 37115 ft | 463 kts | 141° |
| 2026-04-26 09:27 | 44.25592 | 16.53390 | 37122 ft | 463 kts | 142° |
| 2026-04-26 09:28 | 44.20589 | 16.59052 | 37122 ft | 463 kts | 142° |
| 2026-04-26 09:28 | 44.15575 | 16.64721 | 37110 ft | 464 kts | 142° |
| 2026-04-26 09:29 | 44.10567 | 16.70368 | 37115 ft | 463 kts | 142° |
| 2026-04-26 09:29 | 44.05555 | 16.76003 | 37112 ft | 463 kts | 142° |
| 2026-04-26 09:30 | 44.00541 | 16.81632 | 37123 ft | 464 kts | 142° |
| 2026-04-26 09:30 | 43.95553 | 16.87222 | 37119 ft | 463 kts | 142° |
| 2026-04-26 09:31 | 43.90532 | 16.92828 | 37113 ft | 464 kts | 142° |
| 2026-04-26 09:31 | 43.85508 | 16.98428 | 37116 ft | 464 kts | 142° |
| 2026-04-26 09:32 | 43.80474 | 17.04030 | 37120 ft | 464 kts | 142° |
| 2026-04-26 09:32 | 43.75443 | 17.09609 | 37133 ft | 464 kts | 142° |
| 2026-04-26 09:33 | 43.70411 | 17.15185 | 37119 ft | 464 kts | 142° |
| 2026-04-26 09:33 | 43.65377 | 17.20754 | 37110 ft | 464 kts | 143° |
| 2026-04-26 09:34 | 43.60325 | 17.26322 | 37118 ft | 464 kts | 143° |
| 2026-04-26 09:34 | 43.55280 | 17.31873 | 37120 ft | 464 kts | 143° |
| 2026-04-26 09:35 | 43.50231 | 17.37420 | 37113 ft | 464 kts | 143° |
| 2026-04-26 09:35 | 43.45169 | 17.42969 | 37118 ft | 465 kts | 143° |
| 2026-04-26 09:36 | 43.40137 | 17.48461 | 36909 ft | 465 kts | 143° |
| 2026-04-26 09:36 | 43.37574 | 17.51255 | 36645 ft | 465 kts | 143° |
| 2026-04-26 09:36 | 43.35071 | 17.53983 | 36377 ft | 465 kts | 143° |
| 2026-04-26 09:36 | 43.32533 | 17.56747 | 36122 ft | 465 kts | 143° |
| 2026-04-26 09:37 | 43.29969 | 17.59539 | 35876 ft | 465 kts | 143° |
| 2026-04-26 09:37 | 43.27461 | 17.62266 | 35625 ft | 466 kts | 143° |
| 2026-04-26 09:37 | 43.24917 | 17.65029 | 35368 ft | 466 kts | 143° |
| 2026-04-26 09:37 | 43.22379 | 17.67782 | 35121 ft | 467 kts | 143° |
| 2026-04-26 09:38 | 43.19826 | 17.70544 | 34839 ft | 467 kts | 143° |
| 2026-04-26 09:38 | 43.17264 | 17.73316 | 33914 ft | 475 kts | 143° |
| 2026-04-26 09:38 | 43.14650 | 17.76139 | 32953 ft | 480 kts | 143° |
| 2026-04-26 09:38 | 43.12013 | 17.78982 | 31975 ft | 485 kts | 143° |
| 2026-04-26 09:39 | 43.09352 | 17.81848 | 30994 ft | 490 kts | 143° |
| 2026-04-26 09:39 | 43.06666 | 17.84742 | 30245 ft | 490 kts | 143° |
| 2026-04-26 09:39 | 43.04007 | 17.87605 | 29572 ft | 485 kts | 143° |
| 2026-04-26 09:39 | 43.01364 | 17.90446 | 28940 ft | 480 kts | 143° |
| 2026-04-26 09:40 | 42.98747 | 17.93255 | 28292 ft | 476 kts | 143° |
| 2026-04-26 09:40 | 42.96164 | 17.96026 | 27652 ft | 471 kts | 143° |
| 2026-04-26 09:40 | 42.93595 | 17.98779 | 27014 ft | 467 kts | 144° |
| 2026-04-26 09:40 | 42.91055 | 18.01497 | 26385 ft | 463 kts | 144° |
| 2026-04-26 09:41 | 42.88524 | 18.04200 | 25764 ft | 460 kts | 144° |
| 2026-04-26 09:41 | 42.86009 | 18.06879 | 25138 ft | 456 kts | 144° |
| 2026-04-26 09:41 | 42.83521 | 18.09525 | 24534 ft | 453 kts | 144° |
| 2026-04-26 09:41 | 42.81044 | 18.12165 | 23938 ft | 450 kts | 144° |
| 2026-04-26 09:42 | 42.78647 | 18.14811 | 23318 ft | 447 kts | 142° |
| 2026-04-26 09:42 | 42.76301 | 18.17617 | 22767 ft | 441 kts | 140° |
| 2026-04-26 09:42 | 42.74095 | 18.20401 | 22269 ft | 435 kts | 139° |
| 2026-04-26 09:42 | 42.71892 | 18.23246 | 21753 ft | 429 kts | 139° |
| 2026-04-26 09:43 | 42.69736 | 18.26025 | 21261 ft | 424 kts | 139° |
| 2026-04-26 09:43 | 42.67619 | 18.28717 | 20781 ft | 420 kts | 139° |
| 2026-04-26 09:43 | 42.65487 | 18.31390 | 20279 ft | 416 kts | 139° |
| 2026-04-26 09:43 | 42.63354 | 18.34032 | 19781 ft | 413 kts | 140° |
| 2026-04-26 09:44 | 42.61229 | 18.36644 | 19261 ft | 410 kts | 140° |
| 2026-04-26 09:44 | 42.59126 | 18.39224 | 18753 ft | 407 kts | 139° |
| 2026-04-26 09:44 | 42.57031 | 18.41799 | 18186 ft | 405 kts | 139° |
| 2026-04-26 09:44 | 42.54952 | 18.44357 | 17632 ft | 401 kts | 139° |
| 2026-04-26 09:45 | 42.52895 | 18.46889 | 17090 ft | 397 kts | 139° |
| 2026-04-26 09:45 | 42.50866 | 18.49385 | 16556 ft | 393 kts | 139° |
| 2026-04-26 09:45 | 42.48850 | 18.51868 | 15993 ft | 389 kts | 139° |
| 2026-04-26 09:45 | 42.46858 | 18.54318 | 15457 ft | 386 kts | 139° |
| 2026-04-26 09:46 | 42.44873 | 18.56754 | 14928 ft | 383 kts | 138° |
| 2026-04-26 09:46 | 42.42903 | 18.59169 | 14395 ft | 380 kts | 138° |
| 2026-04-26 09:46 | 42.40954 | 18.61555 | 13862 ft | 377 kts | 138° |
| 2026-04-26 09:46 | 42.39009 | 18.63933 | 13286 ft | 375 kts | 138° |
| 2026-04-26 09:47 | 42.37085 | 18.66285 | 12763 ft | 370 kts | 138° |
| 2026-04-26 09:47 | 42.35188 | 18.68597 | 12227 ft | 366 kts | 138° |
| 2026-04-26 09:47 | 42.33131 | 18.70586 | 11714 ft | 362 kts | 151° |
| 2026-04-26 09:47 | 42.30832 | 18.71898 | 11186 ft | 359 kts | 164° |
| 2026-04-26 09:48 | 42.28386 | 18.72490 | 10679 ft | 356 kts | 175° |
| 2026-04-26 09:48 | 42.25959 | 18.72739 | 10531 ft | 342 kts | 175° |
| 2026-04-26 09:48 | 42.23635 | 18.72995 | 10419 ft | 330 kts | 175° |
| 2026-04-26 09:48 | 42.21384 | 18.73257 | 10287 ft | 319 kts | 175° |
| 2026-04-26 09:49 | 42.19216 | 18.73512 | 10174 ft | 308 kts | 175° |
| 2026-04-26 09:49 | 42.17125 | 18.73756 | 9914 ft | 304 kts | 174° |
| 2026-04-26 09:49 | 42.15007 | 18.74100 | 9484 ft | 305 kts | 167° |
| 2026-04-26 09:49 | 42.13012 | 18.74969 | 9178 ft | 301 kts | 158° |
| 2026-04-26 09:50 | 42.11076 | 18.75980 | 8991 ft | 292 kts | 158° |
| 2026-04-26 09:50 | 42.09361 | 18.77209 | 8833 ft | 271 kts | 136° |
| 2026-04-26 09:50 | 42.08312 | 18.79197 | 8486 ft | 257 kts | 106° |
| 2026-04-26 09:50 | 42.08125 | 18.81520 | 8024 ft | 248 kts | 78° |
| 2026-04-26 09:51 | 42.08648 | 18.83694 | 7503 ft | 245 kts | 66° |
| 2026-04-26 09:51 | 42.09354 | 18.85765 | 7010 ft | 241 kts | 51° |
| 2026-04-26 09:51 | 42.10596 | 18.87204 | 6554 ft | 235 kts | 23° |
| 2026-04-26 09:51 | 42.12169 | 18.87638 | 6056 ft | 233 kts | 355° |
| 2026-04-26 09:52 | 42.13741 | 18.87160 | 5615 ft | 230 kts | 345° |
| 2026-04-26 09:52 | 42.16742 | 18.85953 | 4941 ft | 217 kts | 340° |
| 2026-04-26 09:52 | 42.18120 | 18.85242 | 4652 ft | 208 kts | 340° |
| 2026-04-26 09:53 | 42.19449 | 18.84557 | 4375 ft | 200 kts | 340° |
| 2026-04-26 09:53 | 42.20734 | 18.83896 | 4130 ft | 196 kts | 339° |
| 2026-04-26 09:53 | 42.22002 | 18.83244 | 3871 ft | 195 kts | 339° |
| 2026-04-26 09:53 | 42.23253 | 18.82601 | 3618 ft | 193 kts | 339° |
| 2026-04-26 09:54 | 42.24501 | 18.81960 | 3392 ft | 187 kts | 339° |
| 2026-04-26 09:54 | 42.25688 | 18.81348 | 3130 ft | 182 kts | 339° |
| 2026-04-26 09:54 | 42.26857 | 18.80741 | 2872 ft | 178 kts | 338° |
| 2026-04-26 09:54 | 42.27989 | 18.80154 | 2660 ft | 172 kts | 338° |
| 2026-04-26 09:55 | 42.29115 | 18.79572 | 2409 ft | 174 kts | 338° |
| 2026-04-26 09:55 | 42.30212 | 18.79008 | 2156 ft | 162 kts | 337° |
| 2026-04-26 09:55 | 42.31209 | 18.78495 | 1964 ft | 149 kts | 337° |
| 2026-04-26 09:55 | 42.32156 | 18.78006 | 1740 ft | 144 kts | 337° |
| 2026-04-26 09:56 | 42.33093 | 18.77519 | 1540 ft | 144 kts | 338° |
| 2026-04-26 09:56 | 42.34017 | 18.77040 | 1338 ft | 142 kts | 337° |
| 2026-04-26 09:56 | 42.34939 | 18.76562 | 1138 ft | 142 kts | 338° |
| 2026-04-26 09:56 | 42.35864 | 18.76082 | 945 ft | 142 kts | 336° |
| 2026-04-26 09:57 | 42.36778 | 18.75609 | 753 ft | 141 kts | 337° |
| 2026-04-26 09:57 | 42.37693 | 18.75133 | 538 ft | 140 kts | 337° |
| 2026-04-26 09:57 | 42.38547 | 18.74514 | 328 ft | 139 kts | 322° |
| 2026-04-26 09:57 | 42.39297 | 18.73695 | 113 ft | 139 kts | 319° |
| 2026-04-26 09:58 | 42.40012 | 18.72863 | -2 ft | 125 kts | 317° |
| 2026-04-26 09:58 | 42.40562 | 18.72216 | -5 ft | 81 kts | 319° |
| 2026-04-26 09:58 | 42.40862 | 18.71859 | -4 ft | 44 kts | 319° |
| 2026-04-26 09:58 | 42.41083 | 18.71596 | -3 ft | 41 kts | 319° |
| 2026-04-26 09:59 | 42.41260 | 18.71393 | -5 ft | 19 kts | 320° |
| 2026-04-26 09:59 | 42.41319 | 18.71362 | -5 ft | 9 kts | 14° |
| 2026-04-26 09:59 | 42.41361 | 18.71430 | -4 ft | 10 kts | 77° |
| 2026-04-26 09:59 | 42.41333 | 18.71494 | -3 ft | 8 kts | 141° |
| 2026-04-26 10:00 | 42.41285 | 18.71549 | -5 ft | 10 kts | 139° |
| 2026-04-26 10:00 | 42.41268 | 18.71569 | -5 ft | 1 kts | 139° |
| 2026-04-26 10:00 | 42.41256 | 18.71591 | -5 ft | 4 kts | 105° |
| 2026-04-26 10:00 | 42.41278 | 18.71639 | -6 ft | 6 kts | 79° |
| 2026-04-26 10:01 | 42.41261 | 18.71658 | -6 ft | 3 kts | 168° |
| 2026-04-26 10:01 | 42.41251 | 18.71656 | -5 ft | 0 kts | 185° |